Time;durP1;ratioP1;P1;durP2;ratioP2;P2;SDS_P1;SDS_P2;PMS_P1;PMS_P2;Temp;Humidity;BMP_temperature;BMP_pressure;BME280_temperature;BME280_humidity;BME280_pressure;Samples;Min_cycle;Max_cycle;Signal;HPM_P1;HPM_P2
2022/06/11 00:01:20;;;;;;;1.30;1.30;;;21.90;69.40;;;;;;5088542;27;43418;-69
2022/06/11 00:03:51;;;;;;;1.23;1.23;;;22.00;68.90;;;;;;5088033;27;43817;-69
2022/06/11 00:06:19;;;;;;;1.40;1.40;;;22.20;68.40;;;;;;5088204;27;44102;-71
2022/06/11 00:08:48;;;;;;;1.03;1.03;;;22.30;68.00;;;;;;5088288;27;44026;-70
2022/06/11 00:11:16;;;;;;;1.20;1.20;;;22.40;67.50;;;;;;5088656;27;43981;-69
2022/06/11 00:13:44;;;;;;;1.10;1.10;;;22.40;68.10;;;;;;5070315;27;43366;-70
2022/06/11 00:16:12;;;;;;;1.30;1.30;;;22.30;67.50;;;;;;5088043;27;43970;-70
2022/06/11 00:18:41;;;;;;;1.20;1.20;;;22.20;68.00;;;;;;5069731;27;44517;-70
2022/06/11 00:21:11;;;;;;;1.40;1.40;;;22.00;68.30;;;;;;5087837;27;43935;-69
2022/06/11 00:23:39;;;;;;;1.33;1.33;;;21.90;68.50;;;;;;5091413;27;43919;-69
2022/06/11 00:26:07;;;;;;;1.20;1.20;;;21.70;69.50;;;;;;5107469;27;43950;-70
2022/06/11 00:28:35;;;;;;;1.17;1.17;;;21.60;69.10;;;;;;5107603;27;43935;-70
2022/06/11 00:31:03;;;;;;;1.30;1.30;;;21.50;69.40;;;;;;5088793;27;44156;-70
2022/06/11 00:33:31;;;;;;;1.00;1.00;;;21.50;69.70;;;;;;5107941;27;43959;-71
2022/06/11 00:35:59;;;;;;;1.10;1.10;;;21.40;69.70;;;;;;5107442;27;44021;-70
2022/06/11 00:38:29;;;;;;;1.10;1.10;;;21.30;69.80;;;;;;5107227;27;43966;-70
2022/06/11 00:40:57;;;;;;;1.33;1.33;;;21.30;70.10;;;;;;5104462;27;43981;-69
2022/06/11 00:43:27;;;;;;;1.00;1.00;;;21.30;70.10;;;;;;5088078;27;44026;-69
2022/06/11 00:45:59;;;;;;;1.10;1.10;;;21.30;70.20;;;;;;5087554;27;43895;-70
2022/06/11 00:48:30;;;;;;;1.00;1.00;;;21.20;70.20;;;;;;5087364;27;43400;-70
2022/06/11 00:51:00;;;;;;;1.30;1.30;;;21.20;70.30;;;;;;5086864;27;44083;-70
2022/06/11 00:53:34;;;;;;;1.10;1.10;;;21.20;70.30;;;;;;5087932;27;43874;-71
2022/06/11 00:56:03;;;;;;;1.20;1.17;;;21.20;70.40;;;;;;5106555;27;43955;-70
2022/06/11 00:58:34;;;;;;;1.27;1.27;;;21.20;70.40;;;;;;5106872;27;43957;-70
2022/06/11 01:01:02;;;;;;;1.17;1.17;;;21.20;71.30;;;;;;5107552;27;44001;-69
2022/06/11 01:03:31;;;;;;;1.30;1.30;;;21.30;71.10;;;;;;5107438;27;43945;-70
2022/06/11 01:06:06;;;;;;;1.30;1.30;;;21.50;71.50;;;;;;5107282;27;43883;-70
2022/06/11 01:08:50;;;;;;;1.20;1.20;;;21.60;70.10;;;;;;5087361;27;44016;-70
2022/06/11 01:11:30;;;;;;;1.00;0.90;;;21.80;69.50;;;;;;5069000;27;44021;-70
2022/06/11 01:14:09;;;;;;;1.20;1.20;;;22.00;69.00;;;;;;5087880;27;43973;-70
2022/06/11 01:16:41;;;;;;;1.30;1.30;;;22.20;68.50;;;;;;5106059;27;44849;-70
2022/06/11 01:19:25;;;;;;;1.10;1.10;;;22.30;67.90;;;;;;5086722;28;43948;-70
2022/06/11 01:22:01;;;;;;;1.10;1.10;;;22.40;67.50;;;;;;5086978;27;43841;-71
2022/06/11 01:24:41;;;;;;;1.10;1.10;;;22.60;67.20;;;;;;5087592;27;43963;-70
2022/06/11 01:27:37;;;;;;;1.17;1.17;;;22.60;66.80;;;;;;5068689;28;46127;-69
2022/06/11 01:30:06;;;;;;;1.10;1.10;;;22.50;67.10;;;;;;5087053;27;44116;-70
2022/06/11 01:32:41;;;;;;;1.30;1.30;;;22.30;67.60;;;;;;5086663;27;43908;-70
2022/06/11 01:35:19;;;;;;;1.10;1.10;;;22.10;68.00;;;;;;5087501;27;43920;-70
2022/06/11 01:37:51;;;;;;;1.10;1.10;;;22.00;68.90;;;;;;5068225;28;44144;-70
2022/06/11 01:40:24;;;;;;;1.17;1.17;;;21.80;68.50;;;;;;5087112;27;43966;-70
2022/06/11 01:42:54;;;;;;;1.17;1.17;;;21.60;68.80;;;;;;5087316;27;43978;-70
2022/06/11 01:45:26;;;;;;;1.20;1.20;;;21.50;69.10;;;;;;5087471;27;44224;-70
2022/06/11 01:47:54;;;;;;;1.17;1.17;;;21.50;69.40;;;;;;5086783;27;45069;-71
2022/06/11 01:50:26;;;;;;;1.10;1.10;;;21.40;69.50;;;;;;5106348;27;44000;-71
2022/06/11 01:53:17;;;;;;;1.00;1.00;;;21.40;69.70;;;;;;5087277;27;43760;-70
2022/06/11 01:56:11;;;;;;;1.40;1.13;;;21.30;69.70;;;;;;5090595;27;43418;-70
2022/06/11 01:58:52;;;;;;;5.70;1.70;;;21.30;69.80;;;;;;5090195;27;43736;-69
2022/06/11 02:01:24;;;;;;;1.23;1.23;;;21.30;69.90;;;;;;5089760;28;43983;-70
2022/06/11 02:03:59;;;;;;;1.70;1.23;;;21.20;69.90;;;;;;5089798;28;43991;-70
2022/06/11 02:06:36;;;;;;;1.30;1.20;;;21.20;70.00;;;;;;5090580;28;44049;-70
2022/06/11 02:09:11;;;;;;;1.20;1.20;;;21.20;70.00;;;;;;5089790;28;44800;-70
2022/06/11 02:11:42;;;;;;;1.23;1.23;;;21.20;70.00;;;;;;5091084;27;44945;-70
2022/06/11 02:14:13;;;;;;;1.23;1.23;;;21.20;70.10;;;;;;5109903;27;43418;-70
2022/06/11 02:16:45;;;;;;;1.40;1.40;;;21.20;70.10;;;;;;5091712;27;44233;-70
2022/06/11 02:19:16;;;;;;;1.20;1.20;;;21.20;70.30;;;;;;5090466;27;45054;-70
2022/06/11 02:21:49;;;;;;;1.30;1.30;;;21.30;71.00;;;;;;5090073;27;43393;-70
2022/06/11 02:24:19;;;;;;;1.30;1.30;;;21.40;70.60;;;;;;5090338;27;43954;-70
2022/06/11 02:26:49;;;;;;;1.13;1.13;;;21.60;70.00;;;;;;5090602;27;43983;-70
2022/06/11 02:29:19;;;;;;;1.47;1.47;;;21.80;69.60;;;;;;5090175;27;43916;-70
2022/06/11 02:31:49;;;;;;;1.30;1.30;;;21.90;69.00;;;;;;5089789;27;44062;-70
2022/06/11 02:34:21;;;;;;;1.30;1.30;;;22.10;68.40;;;;;;5105481;27;44021;-70
2022/06/11 02:36:54;;;;;;;1.20;1.20;;;22.20;67.90;;;;;;5109839;27;43966;-69
2022/06/11 02:39:22;;;;;;;1.30;1.20;;;22.40;67.50;;;;;;5109325;27;44039;-70
2022/06/11 02:41:50;;;;;;;1.40;1.40;;;22.50;67.00;;;;;;5109278;27;43892;-70
2022/06/11 02:44:18;;;;;;;1.27;1.27;;;22.50;66.70;;;;;;5108745;27;43976;-71
2022/06/11 02:46:47;;;;;;;1.30;1.30;;;22.40;66.90;;;;;;5106008;27;43970;-69
2022/06/11 02:49:18;;;;;;;1.37;1.33;;;22.20;67.30;;;;;;5089749;27;43841;-70
2022/06/11 02:51:47;;;;;;;1.30;1.30;;;22.00;67.70;;;;;;5089610;27;43918;-70
2022/06/11 02:54:15;;;;;;;1.37;1.37;;;21.90;68.00;;;;;;5094215;27;43907;-71
2022/06/11 02:56:43;;;;;;;1.10;1.10;;;21.70;68.20;;;;;;5105823;27;43984;-70
2022/06/11 02:59:11;;;;;;;1.20;1.20;;;21.60;68.50;;;;;;5089199;27;43973;-70
2022/06/11 03:01:39;;;;;;;1.27;1.27;;;21.50;68.80;;;;;;5089425;27;43385;-70
2022/06/11 03:04:09;;;;;;;1.27;1.27;;;21.50;69.00;;;;;;5089534;27;43874;-70
2022/06/11 03:06:38;;;;;;;1.27;1.27;;;21.40;69.20;;;;;;5070087;28;43529;-70
2022/06/11 03:09:06;;;;;;;1.27;1.27;;;21.40;69.50;;;;;;5089535;27;43951;-71
2022/06/11 03:11:34;;;;;;;1.30;1.30;;;21.30;69.60;;;;;;5089309;27;43944;-71
2022/06/11 03:14:02;;;;;;;1.40;1.40;;;21.30;69.60;;;;;;5088890;27;44082;-70
2022/06/11 03:16:30;;;;;;;1.30;1.30;;;21.30;69.70;;;;;;5109263;27;43900;-70
2022/06/11 03:18:58;;;;;;;1.20;1.20;;;21.20;69.70;;;;;;5108578;27;44781;-70
2022/06/11 03:21:28;;;;;;;1.30;1.30;;;21.20;69.80;;;;;;5108380;27;43946;-70
2022/06/11 03:23:56;;;;;;;1.40;1.40;;;21.20;69.90;;;;;;5107223;27;43418;-71
2022/06/11 03:26:24;;;;;;;1.80;1.30;;;21.20;69.90;;;;;;5109596;27;43988;-70
2022/06/11 03:28:53;;;;;;;1.40;1.40;;;21.20;69.90;;;;;;5109064;27;44468;-70
2022/06/11 03:31:21;;;;;;;1.60;1.50;;;21.20;70.00;;;;;;5108808;27;43885;-70
2022/06/11 03:33:49;;;;;;;1.50;1.50;;;21.20;70.60;;;;;;5103770;27;44136;-70
2022/06/11 03:36:17;;;;;;;1.97;1.73;;;21.30;70.80;;;;;;5089680;27;43982;-71
2022/06/11 03:38:47;;;;;;;2.00;1.87;;;21.40;70.30;;;;;;5088982;27;43925;-71
2022/06/11 03:41:15;;;;;;;2.00;1.90;;;21.60;69.90;;;;;;5107846;27;44077;-70
2022/06/11 03:43:43;;;;;;;2.60;2.30;;;21.80;69.30;;;;;;5108711;27;43960;-70
2022/06/11 03:46:12;;;;;;;3.87;2.40;;;22.00;68.60;;;;;;5109095;27;43414;-70
2022/06/11 03:48:40;;;;;;;4.37;2.60;;;22.10;68.00;;;;;;5108107;27;45052;-70
2022/06/11 03:51:08;;;;;;;3.03;2.77;;;22.30;67.50;;;;;;5108175;27;43978;-70
2022/06/11 03:53:36;;;;;;;5.37;2.87;;;22.40;67.10;;;;;;5107548;27;44005;-70
2022/06/11 03:56:07;;;;;;;7.80;2.83;;;22.50;66.70;;;;;;5103150;27;43996;-70
2022/06/11 03:58:35;;;;;;;4.03;3.00;;;22.50;66.40;;;;;;5107788;27;44067;-70
2022/06/11 04:01:18;;;;;;;4.83;2.77;;;22.50;66.70;;;;;;5102066;27;43921;-70
2022/06/11 04:03:48;;;;;;;4.50;3.00;;;22.30;67.00;;;;;;5088653;27;43813;-70
2022/06/11 04:06:17;;;;;;;3.33;2.80;;;22.10;67.50;;;;;;5089287;27;44042;-70
2022/06/11 04:08:45;;;;;;;3.27;2.60;;;22.00;67.60;;;;;;5088654;27;44890;-70
2022/06/11 04:11:14;;;;;;;5.73;3.43;;;21.80;67.80;;;;;;5096964;27;43950;-70
2022/06/11 04:13:43;;;;;;;2.67;2.47;;;21.70;68.10;;;;;;5089486;27;44044;-70
2022/06/11 04:16:21;;;;;;;4.67;2.70;;;21.60;68.50;;;;;;5108363;27;44168;-70
2022/06/11 04:18:49;;;;;;;4.93;3.27;;;21.50;68.70;;;;;;5107601;27;43911;-70
2022/06/11 04:21:17;;;;;;;4.37;3.23;;;21.50;68.90;;;;;;5108074;27;43960;-71
2022/06/11 04:23:47;;;;;;;3.87;3.00;;;21.40;69.10;;;;;;5098403;27;43997;-70
2022/06/11 04:26:18;;;;;;;3.53;3.20;;;21.40;69.20;;;;;;5099276;27;44058;-70
2022/06/11 04:28:50;;;;;;;5.20;2.97;;;21.30;69.30;;;;;;5089449;27;45696;-70
2022/06/11 04:31:18;;;;;;;7.13;4.17;;;21.30;69.40;;;;;;5108070;27;43927;-69
2022/06/11 04:33:47;;;;;;;4.83;3.30;;;21.30;69.50;;;;;;5090234;27;43398;-70
2022/06/11 04:36:16;;;;;;;4.90;3.20;;;21.30;69.60;;;;;;5106984;27;44054;-70
2022/06/11 04:38:47;;;;;;;3.87;3.27;;;21.30;69.50;;;;;;5108076;27;44057;-70
2022/06/11 04:41:17;;;;;;;4.07;3.50;;;21.20;69.50;;;;;;5108166;27;43687;-70
2022/06/11 04:43:45;;;;;;;6.33;3.90;;;21.20;69.50;;;;;;5107721;27;43364;-71
2022/06/11 04:46:16;;;;;;;4.03;3.37;;;21.20;69.50;;;;;;5088739;27;44040;-71
2022/06/11 04:48:44;;;;;;;4.30;3.40;;;21.20;70.00;;;;;;5087382;27;44039;-69
2022/06/11 04:51:13;;;;;;;3.20;3.00;;;21.30;70.40;;;;;;5069210;28;45883;-70
2022/06/11 04:53:42;;;;;;;3.83;3.17;;;21.40;70.10;;;;;;5101146;27;43849;-70
2022/06/11 04:56:11;;;;;;;5.80;3.60;;;21.60;69.80;;;;;;5087572;27;43839;-71
2022/06/11 04:58:40;;;;;;;3.67;3.20;;;21.80;69.20;;;;;;5087024;28;43902;-71
2022/06/11 05:01:08;;;;;;;4.17;3.10;;;22.00;68.60;;;;;;5093112;27;44133;-70
2022/06/11 05:03:36;;;;;;;3.77;3.20;;;22.10;67.90;;;;;;5086533;28;43964;-71
2022/06/11 05:06:04;;;;;;;3.40;3.03;;;22.30;67.50;;;;;;5087994;27;43889;-70
2022/06/11 05:08:32;;;;;;;5.13;3.37;;;22.40;67.00;;;;;;5086904;28;43921;-70
2022/06/11 05:11:00;;;;;;;3.50;3.20;;;22.50;66.70;;;;;;5087203;28;43854;-70
2022/06/11 05:13:28;;;;;;;3.80;3.20;;;22.50;66.40;;;;;;5087544;28;43756;-70
2022/06/11 05:15:58;;;;;;;3.60;3.30;;;22.50;66.40;;;;;;5087539;27;43398;-70
2022/06/11 05:18:26;;;;;;;3.90;3.27;;;22.40;67.50;;;;;;5100596;27;43887;-70
2022/06/11 05:21:02;;;;;;;3.70;3.33;;;22.20;67.20;;;;;;5106989;27;43390;-70
2022/06/11 05:23:30;;;;;;;3.17;2.97;;;22.00;68.00;;;;;;5106915;27;43550;-70
2022/06/11 05:25:58;;;;;;;3.30;3.10;;;21.80;67.50;;;;;;5107018;27;43952;-71
2022/06/11 05:28:29;;;;;;;3.03;2.73;;;21.70;67.90;;;;;;5098072;27;44067;-70
2022/06/11 05:30:58;;;;;;;3.53;3.20;;;21.60;68.20;;;;;;5090684;27;44129;-70
2022/06/11 05:33:27;;;;;;;3.17;2.83;;;21.50;68.40;;;;;;5099625;27;43333;-70
2022/06/11 05:35:55;;;;;;;3.83;3.00;;;21.50;68.70;;;;;;5111322;27;43888;-70
2022/06/11 05:38:25;;;;;;;3.37;3.07;;;21.40;68.80;;;;;;5110369;27;43958;-70
2022/06/11 05:40:53;;;;;;;2.90;2.70;;;21.40;69.00;;;;;;5110487;27;43961;-70
2022/06/11 05:43:21;;;;;;;2.87;2.67;;;21.30;69.10;;;;;;5110550;27;43919;-70
2022/06/11 05:45:51;;;;;;;3.47;2.97;;;21.30;69.20;;;;;;5076642;27;44118;-70
2022/06/11 05:48:23;;;;;;;3.37;3.07;;;21.30;69.30;;;;;;5093111;27;43782;-69
2022/06/11 05:50:52;;;;;;;3.27;2.60;;;21.30;69.50;;;;;;5110425;27;43777;-71
2022/06/11 05:53:22;;;;;;;2.93;2.73;;;21.30;69.50;;;;;;5110512;27;43824;-70
2022/06/11 05:55:50;;;;;;;3.37;2.90;;;21.20;69.40;;;;;;5092388;27;44147;-70
2022/06/11 05:58:22;;;;;;;3.47;2.60;;;21.20;69.50;;;;;;5110360;27;44757;-71
2022/06/11 06:00:59;;;;;;;2.70;2.50;;;21.20;69.50;;;;;;5110148;27;43942;-70
2022/06/11 06:03:28;;;;;;;3.03;2.80;;;21.20;69.50;;;;;;5110089;27;43914;-70
2022/06/11 06:05:56;;;;;;;2.97;2.77;;;21.20;69.50;;;;;;5110799;27;44010;-70
2022/06/11 06:08:24;;;;;;;3.10;2.80;;;21.20;70.20;;;;;;5104276;27;43888;-70
2022/06/11 06:10:52;;;;;;;3.20;2.90;;;21.30;70.10;;;;;;5072061;28;44860;-70
2022/06/11 06:16:05;;;;;;;2.80;2.60;;;21.60;69.10;;;;;;5080375;27;44122;-70
2022/06/11 06:18:35;;;;;;;2.80;2.60;;;21.90;68.70;;;;;;5090107;27;43972;-70
2022/06/11 06:21:03;;;;;;;2.93;2.73;;;22.10;68.20;;;;;;5090228;27;43847;-70
2022/06/11 06:23:32;;;;;;;3.23;2.73;;;22.20;67.60;;;;;;5090278;27;43339;-71
2022/06/11 06:26:00;;;;;;;3.10;2.80;;;22.30;67.10;;;;;;5090563;27;43954;-70
2022/06/11 06:28:28;;;;;;;2.57;2.40;;;22.40;66.80;;;;;;5089959;27;45117;-71
2022/06/11 06:30:58;;;;;;;2.73;2.57;;;22.50;66.40;;;;;;5086189;27;44094;-71
2022/06/11 06:33:27;;;;;;;3.20;2.70;;;22.50;66.10;;;;;;5094912;27;43886;-70
2022/06/11 06:35:56;;;;;;;2.67;2.50;;;22.40;66.20;;;;;;5072001;27;43910;-70
2022/06/11 06:38:24;;;;;;;2.80;2.60;;;22.30;67.50;;;;;;5091784;27;44077;-70
2022/06/11 06:40:52;;;;;;;4.13;2.93;;;22.10;67.20;;;;;;5109061;27;43930;-69
2022/06/11 06:43:20;;;;;;;2.43;2.33;;;21.90;67.40;;;;;;5109536;27;43983;-70
2022/06/11 06:45:49;;;;;;;2.40;2.30;;;21.80;67.70;;;;;;5101233;27;43952;-70
2022/06/11 06:48:17;;;;;;;2.63;2.43;;;21.60;67.90;;;;;;5089568;27;43902;-70
2022/06/11 06:50:45;;;;;;;3.50;2.60;;;21.50;68.20;;;;;;5096578;27;43931;-70
2022/06/11 06:53:14;;;;;;;2.63;2.50;;;21.50;68.60;;;;;;5089887;27;44113;-70
2022/06/11 06:55:42;;;;;;;2.50;2.40;;;21.40;68.80;;;;;;5071939;27;43929;-70
2022/06/11 06:58:10;;;;;;;2.50;2.30;;;21.30;69.00;;;;;;5091988;27;43857;-70
2022/06/11 07:00:38;;;;;;;2.80;2.60;;;21.30;69.10;;;;;;5109242;27;43340;-70
2022/06/11 07:03:06;;;;;;;3.07;2.67;;;21.30;69.30;;;;;;5109035;27;44129;-71
2022/06/11 07:05:36;;;;;;;2.40;2.30;;;21.20;70.10;;;;;;5109980;27;43403;-70
2022/06/11 07:08:05;;;;;;;2.53;2.33;;;21.20;69.50;;;;;;5081490;27;44605;-70
2022/06/11 07:10:41;;;;;;;2.97;2.67;;;21.20;69.50;;;;;;5099768;27;43398;-70
2022/06/11 07:13:09;;;;;;;2.57;2.47;;;21.20;69.50;;;;;;5109165;27;44194;-69
2022/06/11 07:15:37;;;;;;;2.70;2.50;;;21.20;69.50;;;;;;5109625;27;44047;-70
2022/06/11 07:18:08;;;;;;;2.70;2.57;;;21.20;69.70;;;;;;5105152;27;44325;-70
2022/06/11 07:20:36;;;;;;;3.40;2.60;;;21.20;69.70;;;;;;5089410;27;43896;-70
2022/06/11 07:23:07;;;;;;;2.60;2.40;;;21.20;69.70;;;;;;5089424;27;43929;-70
2022/06/11 07:25:37;;;;;;;2.40;2.20;;;21.20;70.40;;;;;;5089686;27;43779;-70
2022/06/11 07:28:09;;;;;;;2.30;2.20;;;21.30;70.40;;;;;;5088643;27;44045;-70
2022/06/11 07:30:38;;;;;;;2.13;2.10;;;21.50;70.00;;;;;;5089288;27;43794;-70
2022/06/11 07:33:09;;;;;;;2.30;2.20;;;21.60;69.40;;;;;;5089148;27;43940;-70
2022/06/11 07:35:38;;;;;;;3.00;2.40;;;21.80;68.80;;;;;;5088987;27;43944;-71
2022/06/11 07:38:06;;;;;;;2.20;2.10;;;22.00;68.30;;;;;;5108661;27;43734;-71
2022/06/11 07:40:34;;;;;;;2.27;2.17;;;22.10;68.40;;;;;;5088674;28;44008;-70
2022/06/11 07:43:06;;;;;;;2.10;2.00;;;22.30;67.40;;;;;;5101850;27;43407;-71
2022/06/11 07:45:36;;;;;;;2.53;2.43;;;22.40;66.90;;;;;;5102155;27;43937;-71
2022/06/11 07:48:08;;;;;;;2.33;2.23;;;22.40;66.50;;;;;;5088507;27;43946;-71
2022/06/11 07:50:39;;;;;;;2.33;2.13;;;22.40;66.60;;;;;;5084326;27;44680;-70
2022/06/11 07:53:14;;;;;;;2.23;2.13;;;22.30;66.90;;;;;;5099042;27;43862;-70
2022/06/11 07:55:44;;;;;;;2.40;2.27;;;22.10;67.40;;;;;;5089510;27;43896;-70
2022/06/11 07:58:13;;;;;;;2.03;1.93;;;21.90;67.60;;;;;;5091227;27;44037;-70
2022/06/11 08:00:43;;;;;;;2.17;2.07;;;21.70;67.80;;;;;;5108529;27;43955;-70
2022/06/11 08:03:11;;;;;;;2.20;2.10;;;21.60;68.20;;;;;;5108010;27;43965;-70
2022/06/11 08:05:41;;;;;;;2.47;2.37;;;21.50;68.60;;;;;;5099019;27;44011;-70
2022/06/11 08:08:09;;;;;;;2.23;2.13;;;21.40;68.90;;;;;;5088710;27;43822;-70
2022/06/11 08:10:39;;;;;;;2.50;2.30;;;21.30;69.10;;;;;;5088731;27;44261;-71
2022/06/11 08:13:08;;;;;;;2.20;2.10;;;21.30;69.40;;;;;;5098923;27;43881;-71
2022/06/11 08:15:36;;;;;;;2.23;2.13;;;21.20;69.50;;;;;;5108573;27;43873;-70
2022/06/11 08:18:06;;;;;;;2.10;2.00;;;21.20;69.50;;;;;;5108152;27;43947;-70
2022/06/11 08:20:35;;;;;;;2.23;2.13;;;21.20;69.60;;;;;;5108009;27;44047;-70
2022/06/11 08:23:03;;;;;;;2.40;2.30;;;21.20;69.70;;;;;;5107896;27;43987;-70
2022/06/11 08:25:31;;;;;;;2.10;2.00;;;21.10;69.70;;;;;;5108416;27;44024;-71
2022/06/11 08:27:59;;;;;;;2.13;2.03;;;21.10;69.70;;;;;;5107814;27;43581;-70
2022/06/11 08:30:29;;;;;;;2.27;2.17;;;21.10;69.80;;;;;;5103740;27;43994;-70
2022/06/11 08:32:57;;;;;;;1.77;1.73;;;21.10;69.90;;;;;;5088341;27;43964;-70
2022/06/11 08:35:28;;;;;;;1.93;1.83;;;21.10;69.80;;;;;;5095593;27;43953;-72
2022/06/11 08:37:56;;;;;;;2.30;2.20;;;21.10;70.30;;;;;;5074472;27;47009;-69
2022/06/11 08:40:26;;;;;;;2.10;2.00;;;21.20;70.70;;;;;;5103056;27;43777;-70
2022/06/11 08:42:59;;;;;;;2.10;2.00;;;21.30;70.20;;;;;;5088002;27;43990;-70
2022/06/11 08:45:28;;;;;;;2.00;2.00;;;21.50;69.80;;;;;;5088373;27;43880;-69
2022/06/11 08:48:01;;;;;;;2.00;2.00;;;21.70;69.20;;;;;;5087361;28;43963;-70
2022/06/11 08:50:32;;;;;;;2.03;2.00;;;21.90;68.70;;;;;;5087617;27;43931;-70
2022/06/11 08:53:00;;;;;;;1.87;1.83;;;22.00;68.00;;;;;;5087573;28;43896;-70
2022/06/11 08:55:32;;;;;;;1.97;1.87;;;22.20;67.60;;;;;;5087868;28;44100;-70
2022/06/11 08:58:02;;;;;;;1.80;1.80;;;22.30;67.00;;;;;;5087259;28;44984;-70
2022/06/11 09:00:35;;;;;;;2.10;2.00;;;22.40;66.70;;;;;;5087263;28;44097;-70
2022/06/11 09:03:14;;;;;;;2.00;1.90;;;22.50;66.50;;;;;;5086818;27;43989;-70
2022/06/11 09:06:10;;;;;;;2.20;2.10;;;22.40;66.50;;;;;;5087735;28;44025;-70
2022/06/11 09:08:48;;;;;;;1.97;1.90;;;22.30;66.90;;;;;;5049830;28;43902;-71
2022/06/11 09:11:26;;;;;;;2.13;1.90;;;22.10;67.40;;;;;;5087566;28;43890;-71
2022/06/11 09:14:33;;;;;;;1.80;1.80;;;21.90;67.60;;;;;;5090359;27;43369;-70
2022/06/11 09:17:10;;;;;;;2.20;2.10;;;21.70;68.00;;;;;;5047719;27;43873;-70
2022/06/11 09:19:45;;;;;;;1.80;1.80;;;21.50;68.40;;;;;;5087258;27;43890;-70
2022/06/11 09:22:28;;;;;;;2.30;2.20;;;21.40;68.80;;;;;;5087386;27;44042;-70
2022/06/11 09:25:14;;;;;;;1.70;1.70;;;21.40;69.10;;;;;;5068906;28;44069;-70
2022/06/11 09:27:45;;;;;;;1.93;1.90;;;21.30;69.40;;;;;;5096022;27;43967;-69
2022/06/11 09:30:15;;;;;;;1.87;1.87;;;21.20;69.50;;;;;;5107244;27;44035;-71
2022/06/11 09:32:48;;;;;;;1.87;1.87;;;21.20;69.50;;;;;;5104933;27;43365;-70
2022/06/11 09:35:20;;;;;;;1.70;1.70;;;21.20;69.70;;;;;;5087599;27;43982;-70
2022/06/11 09:37:56;;;;;;;1.80;1.80;;;21.20;69.80;;;;;;5087998;27;43388;-69
2022/06/11 09:40:31;;;;;;;1.90;1.80;;;21.20;69.80;;;;;;5098799;27;44980;-71
2022/06/11 09:43:18;;;;;;;1.70;1.70;;;21.20;69.90;;;;;;5106951;27;44115;-70
2022/06/11 09:45:51;;;;;;;1.90;1.80;;;21.10;69.90;;;;;;5092238;27;43530;-70
2022/06/11 09:48:26;;;;;;;1.77;1.77;;;21.10;69.90;;;;;;5096393;27;43930;-69
2022/06/11 09:50:57;;;;;;;1.63;1.63;;;21.10;69.90;;;;;;5106719;27;43919;-69
2022/06/11 09:53:51;;;;;;;1.77;1.77;;;21.10;69.90;;;;;;5106921;27;43790;-70
2022/06/11 09:56:26;;;;;;;1.77;1.77;;;21.10;70.40;;;;;;5106845;27;43950;-70
2022/06/11 09:58:58;;;;;;;1.80;1.70;;;21.20;70.50;;;;;;5088563;27;43889;-70
2022/06/11 10:01:31;;;;;;;1.67;1.67;;;21.40;70.20;;;;;;5103605;27;45183;-70
2022/06/11 10:04:02;;;;;;;1.63;1.63;;;21.60;69.80;;;;;;5089434;27;44006;-70
2022/06/11 10:06:32;;;;;;;1.60;1.60;;;21.70;69.10;;;;;;5093731;27;44005;-71
2022/06/11 10:09:02;;;;;;;1.60;1.60;;;21.90;68.60;;;;;;5106673;27;44187;-70
2022/06/11 10:11:34;;;;;;;1.60;1.60;;;22.10;68.10;;;;;;5106371;27;43951;-70
2022/06/11 10:14:28;;;;;;;1.60;1.60;;;22.20;67.50;;;;;;5106447;27;44039;-70
2022/06/11 10:16:55;;;;;;;1.70;1.70;;;22.40;67.20;;;;;;5107498;27;43886;-70
2022/06/11 10:19:25;;;;;;;1.70;1.60;;;22.40;66.70;;;;;;5110588;27;43972;-71
2022/06/11 10:21:56;;;;;;;1.90;1.90;;;22.40;66.90;;;;;;5109855;27;43587;-71
2022/06/11 10:24:26;;;;;;;1.43;1.43;;;22.20;67.20;;;;;;5110051;27;43984;-70
2022/06/11 10:26:56;;;;;;;1.40;1.40;;;22.10;67.50;;;;;;5109834;27;43971;-70
2022/06/11 10:29:28;;;;;;;1.40;1.40;;;21.90;67.60;;;;;;5110113;27;43928;-70
2022/06/11 10:32:00;;;;;;;1.50;1.50;;;21.70;67.90;;;;;;5089674;28;43960;-70
2022/06/11 10:34:29;;;;;;;1.57;1.57;;;21.60;68.30;;;;;;5108910;27;43972;-70
2022/06/11 10:36:59;;;;;;;1.50;1.50;;;21.50;68.60;;;;;;5109629;27;44015;-70
2022/06/11 10:39:30;;;;;;;1.70;1.70;;;21.50;69.00;;;;;;5096277;27;43387;-70
2022/06/11 10:42:01;;;;;;;1.77;1.77;;;21.40;69.20;;;;;;5089950;27;44060;-70
2022/06/11 10:44:35;;;;;;;1.77;1.67;;;21.30;69.30;;;;;;5090144;27;44205;-70
2022/06/11 10:47:11;;;;;;;1.40;1.40;;;21.30;69.60;;;;;;5105533;27;44029;-70
2022/06/11 10:49:39;;;;;;;1.53;1.53;;;21.30;69.60;;;;;;5110068;27;43974;-71
2022/06/11 10:52:14;;;;;;;1.40;1.40;;;21.30;69.60;;;;;;5109526;27;45101;-71
2022/06/11 10:54:43;;;;;;;1.60;1.60;;;21.20;69.60;;;;;;5109530;27;43589;-70
2022/06/11 10:57:16;;;;;;;1.50;1.50;;;21.20;69.60;;;;;;5109001;27;43921;-71
2022/06/11 10:59:45;;;;;;;1.57;1.57;;;21.20;69.70;;;;;;5110287;27;43346;-70
2022/06/11 11:02:24;;;;;;;1.63;1.63;;;21.20;69.70;;;;;;5109328;27;44013;-70
2022/06/11 11:04:56;;;;;;;1.53;1.53;;;21.20;69.80;;;;;;5109161;27;44018;-71
2022/06/11 11:07:25;;;;;;;1.50;1.50;;;21.20;69.90;;;;;;5102016;27;43917;-70
2022/06/11 11:09:58;;;;;;;1.50;1.50;;;21.20;70.50;;;;;;5096643;27;44056;-70
2022/06/11 11:12:30;;;;;;;1.50;1.50;;;21.30;70.30;;;;;;5104261;27;43953;-70
2022/06/11 11:15:02;;;;;;;1.50;1.50;;;21.50;69.90;;;;;;5109253;27;43840;-70
2022/06/11 11:17:32;;;;;;;1.40;1.40;;;21.60;69.50;;;;;;5099576;27;43955;-71
2022/06/11 11:22:56;;;;;;;1.30;1.30;;;22.00;68.50;;;;;;5088603;28;43927;-70
2022/06/11 11:25:29;;;;;;;1.30;1.30;;;22.10;67.80;;;;;;5088577;28;43389;-70
2022/06/11 11:27:57;;;;;;;1.23;1.23;;;22.30;67.40;;;;;;5087963;27;44000;-70
2022/06/11 11:30:33;;;;;;;1.50;1.50;;;22.40;67.60;;;;;;5089660;27;43937;-71
2022/06/11 11:33:21;;;;;;;1.37;1.37;;;22.50;66.70;;;;;;5088979;27;43596;-70
2022/06/11 11:35:50;;;;;;;1.30;1.30;;;22.40;66.90;;;;;;5089135;27;43793;-69
2022/06/11 11:38:22;;;;;;;1.20;1.20;;;22.20;67.00;;;;;;5089312;27;43952;-70
2022/06/11 11:40:54;;;;;;;1.33;1.33;;;22.00;67.20;;;;;;5089739;27;43382;-70
2022/06/11 11:43:23;;;;;;;1.40;1.40;;;21.90;67.50;;;;;;5089049;27;45035;-70
2022/06/11 11:45:56;;;;;;;1.40;1.40;;;21.80;68.00;;;;;;5108778;27;43413;-70
2022/06/11 11:48:27;;;;;;;1.43;1.43;;;21.60;68.30;;;;;;5108933;27;44043;-70
2022/06/11 11:50:56;;;;;;;1.27;1.27;;;21.50;68.60;;;;;;5083738;27;43959;-71
2022/06/11 11:53:26;;;;;;;1.50;1.50;;;21.50;68.90;;;;;;5088595;27;44951;-70
2022/06/11 11:55:57;;;;;;;1.30;1.30;;;21.40;69.00;;;;;;5095496;27;43811;-70
2022/06/11 11:58:29;;;;;;;1.30;1.30;;;21.40;69.30;;;;;;5089039;27;43952;-70
2022/06/11 12:01:01;;;;;;;1.40;1.40;;;21.30;69.40;;;;;;5089310;27;43386;-71
2022/06/11 12:03:31;;;;;;;1.30;1.30;;;21.30;69.50;;;;;;5090585;27;43807;-70
2022/06/11 12:05:59;;;;;;;1.47;1.47;;;21.30;69.60;;;;;;5108319;27;43879;-70
2022/06/11 12:08:29;;;;;;;1.57;1.47;;;21.30;70.30;;;;;;5092774;27;43889;-71
2022/06/11 12:11:01;;;;;;;1.30;1.30;;;21.30;69.60;;;;;;5070598;27;43427;-70
2022/06/11 12:13:29;;;;;;;1.50;1.50;;;21.20;69.60;;;;;;5105162;27;43947;-70
2022/06/11 12:15:59;;;;;;;1.13;1.13;;;21.20;69.70;;;;;;5108225;27;43616;-70
2022/06/11 12:18:34;;;;;;;1.30;1.30;;;21.20;69.70;;;;;;5107859;27;43893;-70
2022/06/11 12:21:03;;;;;;;1.17;1.17;;;21.20;70.50;;;;;;5097528;27;43946;-70
2022/06/11 12:23:35;;;;;;;1.10;1.10;;;21.20;70.00;;;;;;5099779;27;45124;-70
2022/06/11 12:26:05;;;;;;;1.30;1.30;;;21.30;70.70;;;;;;5089409;27;44065;-70
2022/06/11 12:28:34;;;;;;;1.33;1.33;;;21.40;71.00;;;;;;5089326;27;44083;-71
2022/06/11 12:31:02;;;;;;;1.03;1.03;;;21.50;69.80;;;;;;5088766;27;44005;-70
2022/06/11 12:33:30;;;;;;;1.10;1.10;;;21.70;69.40;;;;;;5100092;27;43988;-71
2022/06/11 12:36:02;;;;;;;1.20;1.20;;;21.90;68.90;;;;;;5089055;27;44203;-71
2022/06/11 12:38:44;;;;;;;1.03;1.03;;;22.00;68.30;;;;;;5107774;27;43990;-70
2022/06/11 12:41:38;;;;;;;1.20;1.20;;;22.20;67.80;;;;;;5108029;27;43959;-71
2022/06/11 12:44:21;;;;;;;1.20;1.20;;;22.40;67.40;;;;;;5107710;27;44997;-70
2022/06/11 12:46:51;;;;;;;1.20;1.20;;;22.50;67.00;;;;;;5087906;27;43896;-70
2022/06/11 12:49:22;;;;;;;1.30;1.30;;;22.50;66.70;;;;;;5088467;27;44074;-70
2022/06/11 12:52:01;;;;;;;1.00;1.00;;;22.40;66.80;;;;;;5108007;27;43397;-70
2022/06/11 12:54:34;;;;;;;1.20;1.20;;;22.30;67.20;;;;;;5088993;27;46879;-70
2022/06/11 12:57:12;;;;;;;1.20;1.20;;;22.10;67.40;;;;;;5091250;27;43719;-70
2022/06/11 12:59:50;;;;;;;1.10;1.10;;;21.90;67.70;;;;;;5092298;27;43897;-71
2022/06/11 13:02:23;;;;;;;1.10;1.10;;;21.80;68.20;;;;;;5107758;27;44195;-70
2022/06/11 13:05:27;;;;;;;1.13;1.13;;;21.60;68.50;;;;;;5087343;27;44992;-71
2022/06/11 13:07:59;;;;;;;1.20;1.20;;;21.50;68.80;;;;;;5074156;27;43916;-69
2022/06/11 13:10:34;;;;;;;1.10;1.10;;;21.40;69.10;;;;;;5082657;28;44019;-70
2022/06/11 13:13:15;;;;;;;1.20;1.20;;;21.40;69.30;;;;;;5088139;27;43836;-71
2022/06/11 13:15:50;;;;;;;1.20;1.20;;;21.30;69.50;;;;;;5087115;28;43908;-71